createdAt,value
2022-10-14T00:01:24.497Z,100341.59
2022-10-14T00:03:55.367Z,100355.44
2022-10-14T00:06:25.999Z,100352.06
2022-10-14T00:08:55.098Z,100357.38
2022-10-14T00:11:25.559Z,100355.44
2022-10-14T00:13:57.036Z,100351.34
2022-10-14T00:16:27.511Z,100353.28
2022-10-14T00:18:58.389Z,100344.97
2022-10-14T00:21:27.694Z,100337.19
2022-10-14T00:23:57.167Z,100348.88
2022-10-14T00:26:27.408Z,100348.59
2022-10-14T00:28:56.204Z,100344.97
2022-10-14T00:31:25.337Z,100336.91
2022-10-14T00:33:53.917Z,100338.38
2022-10-14T00:36:26.060Z,100345.47
2022-10-14T00:38:55.691Z,100343.09
2022-10-14T00:41:26.030Z,100337.78
2022-10-14T00:44:01.642Z,100344.16
2022-10-14T00:46:32.270Z,100338.28
2022-10-14T00:49:05.319Z,100342.31
2022-10-14T00:51:36.448Z,100334.06
2022-10-14T00:54:05.555Z,100339.22
2022-10-14T00:56:35.023Z,100336.56
2022-10-14T00:59:05.966Z,100329.75
2022-10-14T01:01:35.222Z,100331.28
2022-10-14T01:04:03.803Z,100316.97
2022-10-14T01:06:43.646Z,100328.47
2022-10-14T01:09:21.716Z,100317.47
2022-10-14T01:12:26.724Z,100320.69
2022-10-14T01:15:00.039Z,100324.44
2022-10-14T01:17:35.478Z,100325.44
2022-10-14T01:20:24.458Z,100320.13
2022-10-14T01:23:14.606Z,100324.59
2022-10-14T01:25:56.290Z,100324.06
2022-10-14T01:28:32.049Z,100314.72
2022-10-14T01:31:06.007Z,100309.03
2022-10-14T01:33:38.978Z,100315.16
2022-10-14T01:36:14.492Z,100316.31
2022-10-14T01:38:48.286Z,100307.66
2022-10-14T01:41:21.440Z,100307.97
2022-10-14T01:43:53.505Z,100312.28
2022-10-14T01:46:24.954Z,100304.63
2022-10-14T01:48:56.709Z,100306.50
2022-10-14T01:51:31.260Z,100288.31
2022-10-14T01:54:03.581Z,100295.13
2022-10-14T01:56:39.500Z,100291.38
2022-10-14T01:59:11.249Z,100287.75
2022-10-14T02:01:41.079Z,100293.72
2022-10-14T02:04:17.080Z,100291.38
2022-10-14T02:06:51.665Z,100295.81
2022-10-14T02:09:28.371Z,100278.31
2022-10-14T02:12:09.811Z,100290.75
2022-10-14T02:14:45.606Z,100297.59
2022-10-14T02:17:23.469Z,100297.59
2022-10-14T02:19:56.866Z,100302.31
2022-10-14T02:22:32.948Z,100296.34
2022-10-14T02:25:07.061Z,100301.34
2022-10-14T02:27:38.078Z,100293.69
2022-10-14T02:30:07.982Z,100292.31
2022-10-14T02:32:41.765Z,100290.63
2022-10-14T02:35:14.150Z,100294.53
2022-10-14T02:37:43.243Z,100284.94
2022-10-14T02:40:16.439Z,100294.53
2022-10-14T02:42:45.035Z,100293.44
2022-10-14T02:45:15.864Z,100298.47
2022-10-14T02:47:45.943Z,100296.38
2022-10-14T02:50:14.445Z,100288.72
2022-10-14T02:52:42.913Z,100298.19
2022-10-14T02:55:11.344Z,100290.94
2022-10-14T02:57:39.801Z,100290.13
2022-10-14T03:00:09.214Z,100291.78
2022-10-14T03:02:37.796Z,100300.97
2022-10-14T03:05:08.420Z,100303.06
2022-10-14T03:07:36.994Z,100310.00
2022-10-14T03:10:06.191Z,100309.03
2022-10-14T03:12:34.937Z,100304.47
2022-10-14T03:15:03.843Z,100302.34
2022-10-14T03:17:32.389Z,100305.84
2022-10-14T03:20:00.955Z,100298.59
2022-10-14T03:22:31.002Z,100298.75
2022-10-14T03:24:59.582Z,100299.00
2022-10-14T03:27:28.279Z,100299.88
2022-10-14T03:29:56.850Z,100283.31
2022-10-14T03:32:25.392Z,100294.38
2022-10-14T03:34:53.842Z,100285.44
2022-10-14T03:37:22.401Z,100286.41
2022-10-14T03:39:53.272Z,100282.78
2022-10-14T03:42:22.068Z,100274.88
2022-10-14T03:44:50.697Z,100268.56
2022-10-14T03:47:19.176Z,100278.91
2022-10-14T03:49:47.772Z,100282.13
2022-10-14T03:52:16.406Z,100283.66
2022-10-14T03:54:44.838Z,100282.50
2022-10-14T03:57:14.714Z,100274.00
2022-10-14T03:59:43.343Z,100281.28
2022-10-14T04:02:11.943Z,100281.41
2022-10-14T04:04:40.628Z,100279.56
2022-10-14T04:07:09.087Z,100271.66
2022-10-14T04:09:37.664Z,100277.13
2022-10-14T04:12:06.643Z,100278.94
2022-10-14T04:14:36.596Z,100276.56
2022-10-14T04:17:05.206Z,100272.84
2022-10-14T04:19:33.714Z,100259.91
2022-10-14T04:22:02.253Z,100263.06
2022-10-14T04:24:30.813Z,100254.44
2022-10-14T04:26:59.601Z,100258.31
2022-10-14T04:29:28.308Z,100259.47
2022-10-14T04:31:58.314Z,100245.72
2022-10-14T04:34:27.231Z,100264.06
2022-10-14T04:36:55.722Z,100256.41
2022-10-14T04:39:24.197Z,100259.75
2022-10-14T04:41:52.777Z,100262.69
2022-10-14T04:44:21.270Z,100272.84
2022-10-14T04:46:49.764Z,100268.97
2022-10-14T04:49:19.823Z,100261.47
2022-10-14T04:51:48.379Z,100268.84
2022-10-14T04:54:16.894Z,100258.84
2022-10-14T04:56:45.366Z,100260.34
2022-10-14T04:59:14.637Z,100257.31
2022-10-14T05:01:43.197Z,100258.97
2022-10-14T05:04:11.698Z,100257.84
2022-10-14T05:06:41.656Z,100259.09
2022-10-14T05:09:10.328Z,100259.25
2022-10-14T05:11:38.914Z,100256.88
2022-10-14T05:14:07.649Z,100258.41
2022-10-14T05:16:36.771Z,100267.03
2022-10-14T05:19:05.416Z,100248.69
2022-10-14T05:21:34.016Z,100255.38
2022-10-14T05:24:04.027Z,100237.28
2022-10-14T05:26:32.833Z,100251.59
2022-10-14T05:29:01.629Z,100247.00
2022-10-14T05:31:30.159Z,100247.84
2022-10-14T05:33:58.695Z,100250.34
2022-10-14T05:36:27.230Z,100245.06
2022-10-14T05:38:58.847Z,100245.06
2022-10-14T05:41:29.738Z,100251.19
2022-10-14T05:43:58.253Z,100245.91
2022-10-14T05:46:26.801Z,100240.75
2022-10-14T05:48:55.431Z,100239.34
2022-10-14T05:51:24.371Z,100237.28
2022-10-14T05:53:52.808Z,100222.53
2022-10-14T05:56:21.832Z,100231.72
2022-10-14T05:58:52.295Z,100249.22
2022-10-14T06:01:20.808Z,100240.19
2022-10-14T06:03:52.099Z,100244.50
2022-10-14T06:06:23.253Z,100245.06
2022-10-14T06:08:56.725Z,100253.56
2022-10-14T06:11:25.539Z,100246.31
2022-10-14T06:13:55.715Z,100246.84
2022-10-14T06:16:24.506Z,100249.22
2022-10-14T06:18:54.596Z,100247.25
2022-10-14T06:21:23.233Z,100251.28
2022-10-14T06:23:51.787Z,100249.78
2022-10-14T06:26:20.386Z,100240.59
2022-10-14T06:28:49.072Z,100249.75
2022-10-14T06:31:19.249Z,100257.41
2022-10-14T06:33:48.075Z,100258.09
2022-10-14T06:36:16.904Z,100251.72
2022-10-14T06:38:45.445Z,100249.34
2022-10-14T06:41:14.065Z,100249.88
2022-10-14T06:43:42.653Z,100264.91
2022-10-14T06:46:11.256Z,100265.50
2022-10-14T06:48:41.273Z,100256.44
2022-10-14T06:51:11.488Z,100266.44
2022-10-14T06:53:40.105Z,100260.03
2022-10-14T06:56:12.146Z,100257.94
2022-10-14T06:58:40.846Z,100258.63
2022-10-14T07:01:10.583Z,100253.91
2022-10-14T07:03:41.202Z,100255.72
2022-10-14T07:06:11.019Z,100246.38
2022-10-14T07:08:39.491Z,100258.59
2022-10-14T07:11:08.347Z,100259.69
2022-10-14T07:13:38.101Z,100256.34
2022-10-14T07:16:07.089Z,100259.09
2022-10-14T07:18:35.809Z,100242.66
2022-10-14T07:21:07.399Z,100242.94
2022-10-14T07:23:36.579Z,100242.63
2022-10-14T07:26:05.509Z,100247.44
2022-10-14T07:28:34.811Z,100245.59
2022-10-14T07:31:05.799Z,100236.75
2022-10-14T07:36:13.597Z,100246.53
2022-10-14T07:38:44.254Z,100256.25
2022-10-14T07:41:18.498Z,100251.19
2022-10-14T07:43:48.091Z,100250.50
2022-10-14T07:46:18.028Z,100261.88
2022-10-14T07:48:56.655Z,100253.13
2022-10-14T07:51:27.846Z,100258.34
2022-10-14T07:53:57.872Z,100263.34
2022-10-14T07:56:31.841Z,100262.19
2022-10-14T07:59:00.676Z,100264.63
2022-10-14T08:01:29.501Z,100261.88
2022-10-14T08:03:58.242Z,100267.09
2022-10-14T08:06:28.560Z,100270.47
2022-10-14T08:08:57.187Z,100268.88
2022-10-14T08:11:29.438Z,100263.97
2022-10-14T08:14:01.029Z,100252.22
2022-10-14T08:16:31.954Z,100267.25
2022-10-14T08:19:12.637Z,100267.69
2022-10-14T08:21:45.025Z,100264.25
2022-10-14T08:24:13.758Z,100256.00
2022-10-14T08:26:50.069Z,100260.25
2022-10-14T08:29:19.977Z,100265.25
2022-10-14T08:31:48.658Z,100262.81
2022-10-14T08:34:17.286Z,100269.78
2022-10-14T08:36:53.896Z,100263.59
2022-10-14T08:39:22.998Z,100261.13
2022-10-14T08:42:16.370Z,100269.91
2022-10-14T08:44:49.011Z,100267.41
2022-10-14T08:47:22.454Z,100259.41
2022-10-14T08:49:59.991Z,100262.38
2022-10-14T08:52:37.838Z,100258.22
2022-10-14T08:55:22.298Z,100259.31
2022-10-14T08:57:55.676Z,100253.94
2022-10-14T09:00:24.727Z,100249.59
2022-10-14T09:02:53.968Z,100253.19
2022-10-14T09:05:25.259Z,100248.63
2022-10-14T09:07:57.630Z,100254.44
2022-10-14T09:10:32.575Z,100247.53
2022-10-14T09:13:11.014Z,100245.84
2022-10-14T09:15:44.690Z,100246.63
2022-10-14T09:18:24.520Z,100244.19
2022-10-14T09:20:54.248Z,100230.94
2022-10-14T09:23:26.306Z,100240.19
2022-10-14T09:25:59.112Z,100245.69
2022-10-14T09:28:37.066Z,100245.91
2022-10-14T09:31:06.861Z,100241.88
2022-10-14T09:33:42.283Z,100230.44
2022-10-14T09:36:18.205Z,100238.59
2022-10-14T09:38:51.907Z,100232.06
2022-10-14T09:41:24.027Z,100235.72
2022-10-14T09:44:15.294Z,100239.31
2022-10-14T09:46:43.974Z,100246.59
2022-10-14T09:49:18.711Z,100229.56
2022-10-14T09:51:47.857Z,100242.28
2022-10-14T09:54:32.276Z,100244.84
2022-10-14T09:57:04.641Z,100242.53
2022-10-14T09:59:34.153Z,100244.47
2022-10-14T10:02:05.708Z,100240.22
2022-10-14T10:04:42.177Z,100237.03
2022-10-14T10:07:29.510Z,100234.84
2022-10-14T10:10:01.694Z,100228.19
2022-10-14T10:12:32.629Z,100222.91
2022-10-14T10:15:04.292Z,100221.06
2022-10-14T10:17:36.353Z,100232.91
2022-10-14T10:20:12.833Z,100224.38
2022-10-14T10:22:42.124Z,100220.38
2022-10-14T10:25:27.008Z,100224.56
2022-10-14T10:27:59.150Z,100214.75
2022-10-14T10:30:30.576Z,100205.16
2022-10-14T10:33:17.803Z,100215.78
2022-10-14T10:36:09.200Z,100207.59
2022-10-14T10:38:47.320Z,100206.09
2022-10-14T10:41:38.963Z,100209.31
2022-10-14T10:44:32.080Z,100207.34
2022-10-14T10:47:13.766Z,100199.13
2022-10-14T10:52:41.483Z,100199.25
2022-10-14T10:55:19.820Z,100201.13
2022-10-14T10:58:03.626Z,100203.19
2022-10-14T11:00:40.463Z,100203.00
2022-10-14T11:03:25.356Z,100194.16
2022-10-14T11:06:00.896Z,100177.09
2022-10-14T11:09:01.815Z,100187.47
2022-10-14T11:11:52.304Z,100192.06
2022-10-14T11:14:50.761Z,100188.78
2022-10-14T11:17:28.488Z,100177.66
2022-10-14T11:20:06.157Z,100169.81
2022-10-14T11:22:52.535Z,100177.19
2022-10-14T11:25:27.593Z,100168.75
2022-10-14T11:28:06.184Z,100171.44
2022-10-14T11:30:45.263Z,100178.44
2022-10-14T11:33:29.936Z,100164.81
2022-10-14T11:36:10.915Z,100172.25
2022-10-14T11:39:04.828Z,100169.75
2022-10-14T11:41:46.241Z,100174.09
2022-10-14T11:44:23.948Z,100166.03
2022-10-14T11:46:58.783Z,100176.16
2022-10-14T11:49:31.668Z,100170.59
2022-10-14T11:52:04.365Z,100160.06
2022-10-14T11:54:38.196Z,100144.38
2022-10-14T11:57:12.835Z,100150.38
2022-10-14T12:00:03.338Z,100156.38
2022-10-14T12:02:42.457Z,100147.50
2022-10-14T12:05:20.101Z,100147.50
2022-10-14T12:08:01.433Z,100142.53
2022-10-14T12:10:34.516Z,100146.66
2022-10-14T12:13:08.130Z,100149.78
2022-10-14T12:15:39.288Z,100145.03
2022-10-14T12:18:09.306Z,100133.84
2022-10-14T12:20:44.827Z,100135.06
2022-10-14T12:23:19.324Z,100133.44
2022-10-14T12:25:55.133Z,100133.19
2022-10-14T12:28:24.141Z,100129.91
2022-10-14T12:30:52.801Z,100131.97
2022-10-14T12:33:23.239Z,100125.59
2022-10-14T12:36:01.588Z,100122.06
2022-10-14T12:38:34.838Z,100124.31
2022-10-14T12:41:36.335Z,100119.41
2022-10-14T12:44:06.154Z,100114.41
2022-10-14T12:46:44.633Z,100114.41
2022-10-14T12:49:25.162Z,100118.56
2022-10-14T12:51:58.123Z,100102.00
2022-10-14T12:54:27.486Z,100112.75
2022-10-14T12:56:58.521Z,100112.97
2022-10-14T12:59:31.974Z,100104.69
2022-10-14T13:02:04.795Z,100109.88
2022-10-14T13:04:35.436Z,100106.38
2022-10-14T13:07:41.947Z,100102.63
2022-10-14T13:10:46.814Z,100098.31
2022-10-14T13:14:00.122Z,100108.44
2022-10-14T13:16:57.749Z,100095.41
2022-10-14T13:19:46.972Z,100098.69
2022-10-14T13:22:40.967Z,100089.59
2022-10-14T13:25:22.958Z,100092.50
2022-10-14T13:27:59.967Z,100094.56
2022-10-14T13:30:37.549Z,100092.91
2022-10-14T13:33:15.970Z,100087.53
2022-10-14T13:36:05.889Z,100094.16
2022-10-14T13:38:36.203Z,100090.84
2022-10-14T13:41:06.707Z,100091.03
2022-10-14T13:43:40.131Z,100090.81
2022-10-14T13:46:11.464Z,100082.09
2022-10-14T13:48:42.941Z,100079.56
2022-10-14T13:51:37.847Z,100076.13
2022-10-14T13:54:21.320Z,100079.78
2022-10-14T13:57:34.691Z,100071.19
2022-10-14T14:00:38.136Z,100088.78
2022-10-14T14:02:40.245Z,100084.47
2022-10-14T14:05:17.578Z,100094.41
2022-10-14T14:08:30.614Z,100089.47
2022-10-14T14:10:51.583Z,100086.59
2022-10-14T14:13:27.880Z,100083.50
2022-10-14T14:15:57.349Z,100089.31
2022-10-14T14:18:38.043Z,100083.97
2022-10-14T14:21:17.381Z,100088.31
2022-10-14T14:23:55.655Z,100088.97
2022-10-14T14:26:30.587Z,100091.41
2022-10-14T14:28:59.113Z,100071.41
2022-10-14T14:31:47.898Z,100091.66
2022-10-14T14:34:20.727Z,100085.88
2022-10-14T14:36:55.394Z,100082.59
2022-10-14T14:39:30.637Z,100093.13
2022-10-14T14:42:01.113Z,100093.94
2022-10-14T14:44:34.990Z,100093.09
2022-10-14T14:47:05.545Z,100086.69
2022-10-14T14:49:38.702Z,100087.94
2022-10-14T14:52:08.103Z,100087.94
2022-10-14T14:54:45.903Z,100085.03
2022-10-14T14:57:19.954Z,100087.31
2022-10-14T14:59:57.504Z,100083.78
2022-10-14T15:02:26.611Z,100082.56
2022-10-14T15:05:05.128Z,100090.00
2022-10-14T15:07:34.023Z,100079.28
2022-10-14T15:10:06.258Z,100082.59
2022-10-14T15:12:39.601Z,100085.66
2022-10-14T15:15:27.112Z,100080.09
2022-10-14T15:18:13.160Z,100083.81
2022-10-14T15:20:43.210Z,100083.38
2022-10-14T15:23:40.508Z,100087.13
2022-10-14T15:26:24.616Z,100083.81
2022-10-14T15:29:16.099Z,100083.38
2022-10-14T15:31:46.557Z,100087.53
2022-10-14T15:34:23.392Z,100086.31
2022-10-14T15:36:57.374Z,100077.41
2022-10-14T15:39:26.044Z,100060.47
2022-10-14T15:41:56.029Z,100061.50
2022-10-14T15:44:24.701Z,100076.59
2022-10-14T15:47:10.237Z,100073.69
2022-10-14T15:49:43.960Z,100054.91
2022-10-14T15:52:15.720Z,100054.09
2022-10-14T15:54:46.419Z,100048.09
2022-10-14T15:57:17.078Z,100060.72
2022-10-14T15:59:46.490Z,100062.59
2022-10-14T16:02:19.752Z,100076.84
2022-10-14T16:05:18.336Z,100067.75
2022-10-14T16:07:37.023Z,100067.94
2022-10-14T16:10:07.503Z,100070.44
2022-10-14T16:12:37.522Z,100062.72
2022-10-14T16:15:31.802Z,100064.81
2022-10-14T16:18:00.695Z,100063.13
2022-10-14T16:20:31.003Z,100066.41
2022-10-14T16:23:00.143Z,100066.13
2022-10-14T16:25:33.141Z,100066.50
2022-10-14T16:28:07.601Z,100060.06
2022-10-14T16:30:39.961Z,100060.84
2022-10-14T16:33:08.877Z,100060.13
2022-10-14T16:35:37.356Z,100064.97
2022-10-14T16:38:06.420Z,100066.91
2022-10-14T16:40:36.807Z,100064.41
2022-10-14T16:43:07.338Z,100070.97
2022-10-14T16:45:35.767Z,100060.19
2022-10-14T16:48:04.085Z,100070.25
2022-10-14T16:50:32.363Z,100064.59
2022-10-14T16:53:18.137Z,100070.34
2022-10-14T16:55:46.399Z,100064.75
2022-10-14T16:58:16.718Z,100067.75
2022-10-14T17:00:45.331Z,100064.69
2022-10-14T17:03:13.921Z,100064.19
2022-10-14T17:05:42.565Z,100060.41
2022-10-14T17:08:11.342Z,100055.75
2022-10-14T17:10:40.520Z,100060.97
2022-10-14T17:13:08.986Z,100068.31
2022-10-14T17:15:39.842Z,100062.22
2022-10-14T17:18:12.125Z,100062.31
2022-10-14T17:20:44.169Z,100069.09
2022-10-14T17:23:15.669Z,100069.22
2022-10-14T17:25:46.871Z,100071.31
2022-10-14T17:28:15.773Z,100063.97
2022-10-14T17:30:45.689Z,100061.81
2022-10-14T17:33:14.082Z,100059.25
2022-10-14T17:35:42.717Z,100052.38
2022-10-14T17:38:11.259Z,100053.50
2022-10-14T17:40:39.946Z,100050.59
2022-10-14T17:43:08.731Z,100048.66
2022-10-14T17:45:38.550Z,100052.94
2022-10-14T17:48:08.717Z,100046.03
2022-10-14T17:50:37.621Z,100036.34
2022-10-14T17:53:06.140Z,100048.63
2022-10-14T17:55:37.475Z,100041.69
2022-10-14T17:58:05.956Z,100045.50
2022-10-14T18:00:34.407Z,100044.75
2022-10-14T18:03:02.918Z,100048.88
2022-10-14T18:05:32.880Z,100048.97
2022-10-14T18:08:01.382Z,100043.22
2022-10-14T18:10:29.867Z,100045.00
2022-10-14T18:12:58.758Z,100027.41
2022-10-14T18:15:31.282Z,100028.00
2022-10-14T18:18:00.484Z,100038.84
2022-10-14T18:20:28.986Z,100031.09
2022-10-14T18:23:03.067Z,100036.34
2022-10-14T18:25:32.201Z,100032.41
2022-10-14T18:28:00.681Z,100025.34
2022-10-14T18:30:29.313Z,100034.38
2022-10-14T18:32:58.019Z,100037.56
2022-10-14T18:35:26.826Z,100040.16
2022-10-14T18:37:55.431Z,100026.28
2022-10-14T18:40:25.367Z,100033.53
2022-10-14T18:42:57.804Z,100035.47
2022-10-14T18:45:26.278Z,100036.84
2022-10-14T18:47:54.765Z,100026.63
2022-10-14T18:50:23.405Z,100037.94
2022-10-14T18:52:52.253Z,100037.66
2022-10-14T18:55:20.743Z,100039.06
2022-10-14T18:57:51.459Z,100042.78
2022-10-14T19:00:20.672Z,100043.50
2022-10-14T19:02:49.205Z,100039.91
2022-10-14T19:05:18.246Z,100041.94
2022-10-14T19:07:47.639Z,100051.78
2022-10-14T19:10:16.552Z,100049.91
2022-10-14T19:12:45.151Z,100041.47
2022-10-14T19:15:15.071Z,100052.66
2022-10-14T19:17:45.961Z,100054.19
2022-10-14T19:20:15.795Z,100050.16
2022-10-14T19:22:45.555Z,100044.88
2022-10-14T19:25:14.003Z,100046.81
2022-10-14T19:27:43.043Z,100042.63
2022-10-14T19:30:12.377Z,100044.19
2022-10-14T19:32:42.579Z,100043.72
2022-10-14T19:35:11.069Z,100030.09
2022-10-14T19:37:39.578Z,100026.91
2022-10-14T19:40:09.717Z,100040.41
2022-10-14T19:42:38.192Z,100030.34
2022-10-14T19:45:07.383Z,100024.44
2022-10-14T19:47:36.052Z,100022.97
2022-10-14T19:50:07.301Z,100023.19
2022-10-14T19:52:35.790Z,100019.22
2022-10-14T19:55:04.275Z,100008.16
2022-10-14T19:57:32.855Z,100026.78
2022-10-14T20:00:01.293Z,100014.19
2022-10-14T20:02:29.795Z,100013.88
2022-10-14T20:04:58.279Z,100017.00
2022-10-14T20:07:28.697Z,100021.88
2022-10-14T20:10:02.022Z,100011.06
2022-10-14T20:12:31.581Z,100003.84
2022-10-14T20:14:59.989Z,100011.47
2022-10-14T20:17:28.888Z,100013.63
2022-10-14T20:19:57.729Z,100015.63
2022-10-14T20:22:27.867Z,100017.97
2022-10-14T20:24:56.387Z,100012.34
2022-10-14T20:27:25.202Z,100007.03
2022-10-14T20:29:54.138Z,100003.38
2022-10-14T20:32:22.878Z,100008.38
2022-10-14T20:34:51.343Z,100010.72
2022-10-14T20:37:23.014Z,100009.72
2022-10-14T20:39:55.705Z,100011.88
2022-10-14T20:42:24.242Z,100013.19
2022-10-14T20:44:52.673Z,100013.69
2022-10-14T20:47:21.431Z,100013.34
2022-10-14T20:49:50.240Z,100002.50
2022-10-14T20:52:18.786Z,99994.72
2022-10-14T20:54:47.299Z,100000.34
2022-10-14T20:57:17.208Z,100005.31
2022-10-14T20:59:45.807Z,99995.38
2022-10-14T21:02:17.155Z,99986.88
2022-10-14T21:04:48.718Z,99987.19
2022-10-14T21:07:18.158Z,99999.72
2022-10-14T21:09:46.751Z,99995.22
2022-10-14T21:12:16.957Z,99994.22
2022-10-14T21:14:45.519Z,99989.75
2022-10-14T21:17:13.968Z,100001.50
2022-10-14T21:19:42.622Z,99991.06
2022-10-14T21:22:11.513Z,99998.84
2022-10-14T21:24:42.018Z,99988.53
2022-10-14T21:27:10.508Z,99983.06
2022-10-14T21:29:40.645Z,99990.41
2022-10-14T21:32:09.138Z,99991.22
2022-10-14T21:34:37.623Z,99992.88
2022-10-14T21:37:06.302Z,99984.72
2022-10-14T21:39:34.880Z,99981.06
2022-10-14T21:42:03.370Z,99968.47
2022-10-14T21:44:31.795Z,99970.78
2022-10-14T21:47:01.783Z,99966.09
2022-10-14T21:49:30.237Z,99972.06
2022-10-14T21:51:58.838Z,99963.78
2022-10-14T21:54:27.653Z,99963.44
2022-10-14T21:59:24.624Z,99954.63
2022-10-14T22:01:56.628Z,99961.78
2022-10-14T22:04:27.412Z,99948.56
2022-10-14T22:06:55.900Z,99954.72
2022-10-14T22:09:24.336Z,99960.44
2022-10-14T22:11:54.597Z,99959.28
2022-10-14T22:14:23.106Z,99936.91
2022-10-14T22:16:51.513Z,99951.34
2022-10-14T22:19:19.954Z,99952.03
2022-10-14T22:21:50.407Z,99950.03
2022-10-14T22:24:18.914Z,99954.81
2022-10-14T22:26:47.311Z,99948.53
2022-10-14T22:29:17.268Z,99945.34
2022-10-14T22:31:46.395Z,99954.69
2022-10-14T22:34:16.723Z,99946.59
2022-10-14T22:36:46.586Z,99927.81
2022-10-14T22:39:18.747Z,99945.25
2022-10-14T22:41:47.230Z,99931.47
2022-10-14T22:44:15.762Z,99932.94
2022-10-14T22:46:47.243Z,99932.13
2022-10-14T22:49:15.746Z,99919.34
2022-10-14T22:51:44.173Z,99929.97
2022-10-14T22:54:12.910Z,99933.63
2022-10-14T22:56:42.764Z,99927.84
2022-10-14T22:59:13.083Z,99924.53
2022-10-14T23:01:42.793Z,99926.03
2022-10-14T23:04:12.347Z,99925.78
2022-10-14T23:06:43.960Z,99927.81
2022-10-14T23:09:12.521Z,99932.63
2022-10-14T23:11:42.733Z,99935.44
2022-10-14T23:14:11.367Z,99932.81
2022-10-14T23:16:40.729Z,99928.50
2022-10-14T23:19:09.396Z,99931.97
2022-10-14T23:21:39.606Z,99940.91
2022-10-14T23:24:10.323Z,99928.81
2022-10-14T23:26:39.312Z,99929.81
2022-10-14T23:29:11.774Z,99926.31
2022-10-14T23:31:41.287Z,99922.50
2022-10-14T23:34:13.480Z,99922.00
2022-10-14T23:36:42.808Z,99913.22
2022-10-14T23:39:11.529Z,99904.59
2022-10-14T23:41:40.285Z,99913.38
2022-10-14T23:44:11.784Z,99909.25
2022-10-14T23:46:40.227Z,99905.25
2022-10-14T23:49:25.050Z,99911.06
2022-10-14T23:51:54.582Z,99908.25
2022-10-14T23:54:23.165Z,99912.22
2022-10-14T23:56:51.770Z,99908.81
2022-10-14T23:59:21.790Z,99896.19
